Far Rockaway, NY (11697)

7:57 AM EDT on May 03, 2015 (GMT -0400)
Breezy Point, NY (BALLFIELD) | | Change Station
CLOSE
Current Station
Personal Weather Station
Location: New York, NY
Elevation: 7 ft
Nearby Weather Stations

Elev 7 ft 40.56 °N, 73.92 °W | Updated 16 seconds ago

Clear
Clear
52.3 °F
Feels Like 52.3 °F
N
2.5
Wind Variable Wind from South
Gusts 2.5 mph

Today
High -- | Low -- °F
--% Chance of Precip.
Yesterday
High -- | Low -- °F
Precip. -- in
5:52 AM 7:53 PM
Full, 100% visible
Pressure 30.10 in
Visibility 10.0 miles
Clouds Few 10000 ft
Scattered Clouds 25000 ft
Dew Point 43 °F
Humidity 70%
Rainfall 0.00 in
Snow Depth Not available.
UV 1.0 out of 12
Pollen 10.80 out of 12
Air Quality Not available.
Flu Activity Widespread
METAR KJFK 031151Z 24007KT 10SM FEW100 SCT250 12/05 A3010 RMK AO2 SLP192 T01220050 10122 20078 53012 $

More Conditions Fewer Conditions

Pressure 30.10 in
Visibility 10.0 miles
Clouds Few 10000 ft
Scattered Clouds 25000 ft
Dew Point 43 °F
Humidity 70%
Rainfall 0.00 in
Snow Depth Not available.
UV 1.0 out of 12
Pollen 10.80 out of 12
Air Quality Not available.
Flu Activity Widespread
METAR KJFK 031151Z 24007KT 10SM FEW100 SCT250 12/05 A3010 RMK AO2 SLP192 T01220050 10122 20078 53012 $

More Conditions Fewer Conditions

Nepal has a long way to go to dig out and rebuild from a devastating earthquake. We have teamed up with several charities and organizations to make contributing to the relief effort as easy as possible.
How you can help: Portlight Strategies | Red Cross

10-Day Weather Forecast

Almanac

Astronomy

May. 03, 2015 Rise Set
Actual Time
Civil Twilight
Nautical Twilight
Astronomical Twilight
Moon
Length of Visible Light
Length of Day
Tomorrow will be .
, % of the Moon is Illuminated

Today's Extremes

State Highs State Lows

Community

WunderPhotos

Upload Photos

1,818,187 photos uploaded!

WunderBlogs® & News

Nearby

Air Quality

  Air Quality AQ Index Pollutant
Not available.

Snow Depth

Station Depth Elevation

Earthquake Activity

City Distance Mag. Time & Date
Minimum magnitude displayed is 2.5.

Coastal Water Temperatures

Place Temperature

Stations

Nearby Weather Stations

Station Location Temp. Windchill Dew Point Humidity Wind Precip. Elev Updated Type